Time;durP1;ratioP1;P1;durP2;ratioP2;P2;SDS_P1;SDS_P2;PMS_P1;PMS_P2;Temp;Humidity;BMP_temperature;BMP_pressure;BME280_temperature;BME280_humidity;BME280_pressure;Samples;Min_cycle;Max_cycle;Signal;HPM_P1;HPM_P2
2021/09/05 11:23:40;;;;;;;7.78;5.40;;;;;;;26.64;40.34;96667.31;5078704;28;20992;-54
2021/09/05 11:26:08;;;;;;;6.93;5.13;;;;;;;26.39;37.14;96668.41;5089262;28;20071;-57
2021/09/05 11:28:37;;;;;;;6.13;5.13;;;;;;;27.45;38.07;96659.81;5089594;28;20471;-56
2021/09/05 11:31:05;;;;;;;6.57;5.30;;;;;;;26.59;39.17;96668.03;5097473;27;20111;-53
2021/09/05 11:33:35;;;;;;;7.10;5.90;;;;;;;27.31;39.91;96661.22;5077772;27;20195;-59
2021/09/05 11:36:07;;;;;;;6.85;5.57;;;;;;;27.33;39.87;96662.59;5099059;27;20440;-57
2021/09/05 11:38:36;;;;;;;6.68;5.10;;;;;;;27.51;37.73;96671.56;5103671;27;20531;-56
2021/09/05 11:41:06;;;;;;;6.40;5.40;;;;;;;27.58;35.87;96667.59;5101586;27;20078;-56
2021/09/05 11:43:35;;;;;;;6.13;5.18;;;;;;;27.11;35.75;96672.47;5096768;27;20068;-56
2021/09/05 11:46:11;;;;;;;6.28;5.10;;;;;;;27.44;37.89;96671.72;5081811;27;20059;-56
2021/09/05 11:48:40;;;;;;;8.07;6.10;;;;;;;27.38;35.33;96670.00;5097767;28;20067;-56
2021/09/05 11:51:08;;;;;;;7.78;5.63;;;;;;;27.52;34.51;96678.59;5091984;28;20057;-55
2021/09/05 11:53:37;;;;;;;6.18;5.57;;;;;;;27.63;36.43;96677.69;5092151;27;20089;-56
2021/09/05 11:56:06;;;;;;;6.82;5.28;;;;;;;27.71;37.79;96679.19;5102646;27;20070;-56
2021/09/05 11:58:35;;;;;;;6.50;5.28;;;;;;;27.89;37.21;96676.22;5098111;27;20094;-57
2021/09/05 12:01:04;;;;;;;7.63;5.40;;;;;;;27.84;35.45;96676.13;5094420;27;20552;-55
2021/09/05 12:03:34;;;;;;;5.97;5.20;;;;;;;27.09;35.78;96688.16;5095728;27;20062;-56
2021/09/05 12:06:02;;;;;;;;;;;;;;;27.26;36.48;96672.78;5090607;28;20056;-54
2021/09/05 12:08:31;;;;;;;6.82;5.00;;;;;;;27.05;35.82;96679.72;5093059;28;19955;-55
2021/09/05 12:11:04;;;;;;;5.72;5.05;;;;;;;27.78;36.01;96682.56;5100371;28;20105;-57
2021/09/05 12:13:50;;;;;;;6.97;4.85;;;;;;;27.78;36.60;96686.09;5091209;28;20080;-54
2021/09/05 12:16:23;;;;;;;6.15;4.85;;;;;;;28.39;35.37;96686.13;5089392;28;20070;-55
2021/09/05 12:19:02;;;;;;;5.70;5.03;;;;;;;27.25;37.01;96690.06;5096336;28;20076;-56
2021/09/05 12:21:31;;;;;;;12.85;5.60;;;;;;;27.06;36.83;96691.34;5097943;28;20059;-54
2021/09/05 12:24:00;;;;;;;6.17;5.10;;;;;;;27.26;36.04;96688.22;5103780;28;20071;-51
2021/09/05 12:26:29;;;;;;;7.10;5.30;;;;;;;27.41;37.38;96683.84;5094277;28;20527;-56
2021/09/05 12:29:00;;;;;;;9.05;5.75;;;;;;;27.37;36.78;96688.13;5100985;28;20150;-56
2021/09/05 12:31:40;;;;;;;5.30;4.53;;;;;;;27.40;35.92;96684.94;5104163;28;20075;-56
2021/09/05 12:34:08;;;;;;;5.82;5.15;;;;;;;27.45;36.24;96679.59;5091396;28;20079;-56
2021/09/05 12:36:37;;;;;;;7.18;5.50;;;;;;;27.78;36.86;96683.38;5092757;28;20084;-53
2021/09/05 12:39:05;;;;;;;7.65;5.22;;;;;;;27.35;36.13;96684.00;5090880;28;20068;-52
2021/09/05 12:41:34;;;;;;;6.35;4.95;;;;;;;27.91;36.44;96684.94;5097587;28;20562;-56
2021/09/05 12:44:06;;;;;;;8.07;5.22;;;;;;;27.60;36.57;96686.34;5097804;28;20079;-53
2021/09/05 12:46:39;;;;;;;6.57;5.07;;;;;;;27.82;36.46;96681.00;5097672;28;20071;-56
2021/09/05 12:49:13;;;;;;;7.10;5.13;;;;;;;27.95;36.47;96685.25;5097570;28;20067;-57
2021/09/05 12:51:52;;;;;;;6.22;5.18;;;;;;;27.64;37.57;96680.16;5092677;28;20607;-54
2021/09/05 12:54:22;;;;;;;6.32;5.45;;;;;;;27.81;37.85;96691.03;5091789;28;20228;-53
2021/09/05 12:56:51;;;;;;;5.97;5.20;;;;;;;28.12;37.90;96678.72;5096386;28;20075;-54
2021/09/05 12:59:21;;;;;;;8.88;5.50;;;;;;;28.14;36.20;96689.28;5097341;28;20075;-54
2021/09/05 13:01:51;;;;;;;7.85;5.72;;;;;;;27.83;37.11;96698.88;5088112;28;20071;-53
2021/09/05 13:04:22;;;;;;;7.47;5.90;;;;;;;28.83;36.96;96688.78;5097426;28;20745;-57
2021/09/05 13:06:50;;;;;;;7.03;5.60;;;;;;;28.37;36.62;96690.97;5103059;27;20075;-55
2021/09/05 13:09:18;;;;;;;6.45;5.40;;;;;;;27.98;37.09;96690.16;5099280;28;20059;-54
2021/09/05 13:11:57;;;;;;;7.22;5.28;;;;;;;28.23;37.49;96687.78;5097469;27;20058;-54
2021/09/05 13:14:26;;;;;;;7.25;5.05;;;;;;;28.14;36.93;96679.25;5097730;27;20445;-54
2021/09/05 13:16:55;;;;;;;7.03;5.15;;;;;;;28.07;36.60;96683.22;5100397;27;20075;-56
2021/09/05 13:19:23;;;;;;;7.25;5.38;;;;;;;27.68;36.71;96684.00;5103827;27;20063;-55
2021/09/05 13:21:51;;;;;;;8.52;5.80;;;;;;;29.08;37.19;96680.94;5102862;27;20102;-51
2021/09/05 13:24:20;;;;;;;6.97;5.10;;;;;;;28.45;36.91;96673.44;5097631;27;20061;-56
2021/09/05 13:26:48;;;;;;;6.53;5.50;;;;;;;29.03;35.73;96669.22;5094959;28;20063;-54
2021/09/05 13:29:23;;;;;;;7.03;5.25;;;;;;;28.55;37.65;96677.09;5098403;27;20534;-54
2021/09/05 13:31:52;;;;;;;8.48;5.90;;;;;;;28.12;37.30;96667.03;5099641;28;20472;-55
2021/09/05 13:34:21;;;;;;;6.60;5.40;;;;;;;28.10;37.11;96677.31;5094166;27;20074;-55
2021/09/05 13:36:49;;;;;;;7.63;5.38;;;;;;;27.87;37.78;96662.91;5098889;27;20078;-53
2021/09/05 13:39:18;;;;;;;7.75;6.03;;;;;;;27.46;38.25;96669.59;5097707;28;20067;-53
2021/09/05 13:41:46;;;;;;;6.43;5.40;;;;;;;28.58;37.65;96662.19;5095784;27;20521;-53
2021/09/05 13:44:16;;;;;;;7.63;5.57;;;;;;;29.08;38.20;96652.97;5098073;28;20078;-53
2021/09/05 13:46:44;;;;;;;;;;;;;;;28.47;35.36;96655.84;5096137;27;20071;-54
2021/09/05 13:49:14;;;;;;;6.50;5.40;;;;;;;28.72;35.86;96657.19;5103726;27;19947;-55
2021/09/05 13:51:42;;;;;;;7.15;5.78;;;;;;;28.79;36.22;96649.66;5100912;27;20078;-52
2021/09/05 13:54:11;;;;;;;9.23;6.22;;;;;;;28.63;37.14;96660.38;5100227;27;20082;-54
2021/09/05 13:56:39;;;;;;;7.97;5.43;;;;;;;28.44;36.93;96656.34;5113260;27;20082;-56
2021/09/05 13:59:07;;;;;;;6.82;5.20;;;;;;;28.30;36.09;96657.78;5107020;27;20086;-53
2021/09/05 14:01:36;;;;;;;6.72;5.18;;;;;;;28.61;36.33;96654.38;5105417;27;20079;-54
2021/09/05 14:04:06;;;;;;;8.63;5.10;;;;;;;28.59;36.23;96669.25;5101833;28;20580;-53
2021/09/05 14:06:36;;;;;;;9.85;5.13;;;;;;;28.79;35.30;96653.19;5097977;27;20564;-55
2021/09/05 14:09:04;;;;;;;7.97;5.20;;;;;;;28.93;36.46;96653.59;5095335;28;20484;-51
2021/09/05 14:11:33;;;;;;;8.45;5.55;;;;;;;29.14;35.32;96657.34;5100479;27;20480;-55
2021/09/05 14:14:01;;;;;;;8.50;5.72;;;;;;;29.52;35.06;96652.78;5102429;27;20090;-55
2021/09/05 14:16:30;;;;;;;7.03;5.30;;;;;;;28.72;36.92;96655.28;5094461;27;20064;-56
2021/09/05 14:18:58;;;;;;;6.55;4.90;;;;;;;28.63;36.05;96659.53;5097559;28;20078;-53
2021/09/05 14:21:26;;;;;;;5.68;5.07;;;;;;;28.15;35.76;96653.81;5103119;27;20062;-56
2021/09/05 14:23:56;;;;;;;7.50;5.40;;;;;;;29.56;34.42;96651.19;5093732;27;20047;-55
2021/09/05 14:26:26;;;;;;;11.13;5.13;;;;;;;28.83;34.96;96648.88;5098333;27;20479;-52
2021/09/05 14:28:59;;;;;;;7.22;5.30;;;;;;;27.63;36.80;96659.56;5113844;27;20085;-56
2021/09/05 14:31:36;;;;;;;6.78;5.80;;;;;;;27.90;36.95;96654.25;5100381;27;20546;-56
2021/09/05 14:48:04;;;;;;;6.68;5.63;;;;;;;28.85;35.13;96648.66;5103149;27;20505;-53
2021/09/05 14:50:44;;;;;;;7.00;4.80;;;;;;;28.27;35.45;96645.53;5097131;28;20079;-56
2021/09/05 14:55:59;;;;;;;6.75;5.65;;;;;;;28.00;34.93;96644.63;5101126;27;20298;-55
2021/09/05 14:58:28;;;;;;;6.57;4.65;;;;;;;28.42;33.70;96646.81;5103234;27;20080;-54
2021/09/05 15:01:01;;;;;;;6.22;5.10;;;;;;;29.01;33.67;96638.75;5101916;27;20074;-54
2021/09/05 15:03:38;;;;;;;7.97;4.80;;;;;;;29.03;33.48;96633.91;5102558;27;20060;-54
2021/09/05 15:06:15;;;;;;;5.75;4.65;;;;;;;28.98;33.85;96640.09;5098215;27;20070;-53
2021/09/05 15:11:31;;;;;;;6.72;4.75;;;;;;;28.69;35.49;96639.50;5093540;27;20555;-53
2021/09/05 15:13:59;;;;;;;5.88;4.82;;;;;;;28.73;35.21;96631.69;5100092;27;20552;-52
2021/09/05 15:16:28;;;;;;;6.72;4.93;;;;;;;28.73;35.52;96639.81;5084132;27;20062;-55
2021/09/05 15:18:56;;;;;;;7.20;5.30;;;;;;;29.00;35.04;96640.66;5098542;27;20070;-54
2021/09/05 15:21:30;;;;;;;6.18;4.68;;;;;;;28.60;35.17;96638.34;5097709;27;20705;-56
2021/09/05 15:23:58;;;;;;;6.72;5.18;;;;;;;28.62;35.06;96637.00;5094683;27;20537;-56
2021/09/05 15:26:29;;;;;;;7.43;6.07;;;;;;;28.03;35.30;96639.53;5103363;27;20086;-55
2021/09/05 15:29:14;;;;;;;6.72;5.68;;;;;;;27.89;35.94;96640.97;5100066;27;20090;-53
2021/09/05 15:31:49;;;;;;;8.48;5.43;;;;;;;27.93;35.17;96651.06;5099947;28;20071;-52
2021/09/05 15:51:19;;;;;;;8.85;6.38;;;;;;;27.45;36.67;96632.72;5069022;27;20056;-54
2021/09/05 15:53:51;;;;;;;6.95;5.18;;;;;;;28.12;36.17;96634.50;5094250;28;20061;-55
2021/09/05 15:56:20;;;;;;;8.15;6.47;;;;;;;27.85;36.19;96631.72;5109242;27;20080;-55
2021/09/05 15:58:53;;;;;;;7.53;5.93;;;;;;;27.56;37.10;96630.97;5095455;28;20379;-57
2021/09/05 16:01:31;;;;;;;9.15;5.20;;;;;;;28.33;36.51;96627.44;5097463;28;20079;-53
2021/09/05 16:04:23;;;;;;;8.25;5.57;;;;;;;28.24;36.84;96627.03;5093288;27;20063;-52
2021/09/05 16:17:58;;;;;;;10.57;5.68;;;;;;;28.16;36.79;96620.19;5093681;28;20447;-55
2021/09/05 16:20:27;;;;;;;6.72;5.40;;;;;;;27.09;38.09;96628.59;5099039;28;20170;-55
2021/09/05 16:22:55;;;;;;;8.32;5.80;;;;;;;27.54;37.64;96625.81;5110315;28;20441;-56
2021/09/05 16:25:23;;;;;;;8.02;5.72;;;;;;;27.30;38.26;96630.59;5104467;28;20137;-57
2021/09/05 16:27:52;;;;;;;7.65;5.78;;;;;;;27.19;38.39;96631.50;5103045;28;20075;-52
2021/09/05 16:30:22;;;;;;;9.63;5.95;;;;;;;27.21;38.59;96630.19;5106451;28;20067;-53
2021/09/05 16:33:00;;;;;;;;;;;;;;;26.92;39.11;96631.28;5103452;28;20063;-54
2021/09/05 16:35:36;;;;;;;8.60;6.25;;;;;;;27.33;38.76;96634.72;5107391;28;19954;-54
2021/09/05 16:38:21;;;;;;;6.97;5.75;;;;;;;28.14;37.55;96633.16;5095300;28;20095;-54
2021/09/05 16:40:48;;;;;;;8.10;6.13;;;;;;;27.22;39.11;96636.44;5104607;27;20529;-54
2021/09/05 16:43:17;;;;;;;10.95;6.20;;;;;;;27.18;38.40;96633.38;5115648;27;20074;-52
2021/09/05 16:45:48;;;;;;;10.48;7.30;;;;;;;27.02;38.72;96638.78;5100755;27;20059;-55
2021/09/05 16:48:16;;;;;;;7.72;6.13;;;;;;;27.56;38.58;96641.81;5113837;27;20604;-52
2021/09/05 16:50:49;;;;;;;9.07;6.28;;;;;;;27.17;39.03;96644.47;5115534;27;20093;-54
2021/09/05 16:53:17;;;;;;;9.32;5.68;;;;;;;26.92;40.07;96645.66;5116650;27;20104;-50
2021/09/05 16:55:45;;;;;;;6.38;5.25;;;;;;;26.98;40.18;96651.97;5102769;27;20498;-54
2021/09/05 16:58:15;;;;;;;7.95;5.43;;;;;;;26.68;40.41;96646.81;5109368;27;20063;-52
2021/09/05 17:00:44;;;;;;;9.65;6.43;;;;;;;27.03;40.09;96652.06;5112100;27;20449;-56
2021/09/05 17:03:12;;;;;;;6.43;5.68;;;;;;;27.09;40.72;96651.06;5102944;27;20090;-53
2021/09/05 17:05:42;;;;;;;8.70;5.70;;;;;;;26.57;41.35;96653.94;5107563;27;20075;-53
2021/09/05 17:08:12;;;;;;;7.07;5.55;;;;;;;26.90;41.30;96647.75;5109788;27;20098;-55
2021/09/05 17:10:40;;;;;;;7.88;6.20;;;;;;;26.82;42.69;96650.88;5105666;27;20075;-54
2021/09/05 17:13:09;;;;;;;9.07;6.85;;;;;;;26.16;46.03;96661.19;5099032;27;20067;-53
2021/09/05 17:15:37;;;;;;;8.88;6.25;;;;;;;26.37;43.93;96658.91;5101697;27;20086;-56
2021/09/05 17:18:05;;;;;;;7.00;5.65;;;;;;;26.12;45.04;96662.75;5119263;27;20062;-54
2021/09/05 17:20:35;;;;;;;6.25;5.50;;;;;;;26.35;43.85;96656.44;5102124;27;20528;-53
2021/09/05 17:23:03;;;;;;;7.40;6.07;;;;;;;27.11;42.17;96664.34;5107105;27;20534;-57
2021/09/05 17:25:33;;;;;;;7.50;5.93;;;;;;;26.75;43.74;96655.63;5115192;27;20068;-55
2021/09/05 17:28:02;;;;;;;9.65;6.72;;;;;;;26.73;44.53;96663.97;5104023;27;20075;-55
2021/09/05 17:30:30;;;;;;;8.52;6.68;;;;;;;26.48;43.88;96675.13;5106748;27;20081;-56
2021/09/05 17:33:01;;;;;;;9.65;6.75;;;;;;;26.75;43.60;96669.97;5110985;27;20070;-57
2021/09/05 17:35:30;;;;;;;9.90;6.30;;;;;;;26.23;44.94;96675.41;5119971;27;20082;-56
2021/09/05 17:37:59;;;;;;;11.07;6.60;;;;;;;25.68;46.35;96688.47;5110758;27;20078;-55
2021/09/05 17:40:27;;;;;;;10.52;6.75;;;;;;;25.63;48.92;96686.47;5103219;27;20118;-57
2021/09/05 17:42:57;;;;;;;8.77;6.53;;;;;;;25.92;49.14;96681.22;5096644;27;20478;-54
2021/09/05 17:45:25;;;;;;;9.48;7.72;;;;;;;25.50;51.35;96682.13;5107687;27;20067;-57
2021/09/05 17:47:53;;;;;;;14.18;8.40;;;;;;;25.20;53.44;96687.59;5098944;27;20067;-52
2021/09/05 17:50:22;;;;;;;8.93;7.25;;;;;;;25.45;52.03;96690.09;5112509;27;20083;-56
2021/09/05 17:52:50;;;;;;;9.57;7.40;;;;;;;25.36;51.59;96690.66;5113366;27;21446;-56
2021/09/05 17:55:19;;;;;;;10.40;7.40;;;;;;;25.20;53.25;96695.69;5107927;27;20089;-57
2021/09/05 17:57:47;;;;;;;12.25;6.97;;;;;;;24.97;67.43;96698.28;5098139;27;20043;-55
2021/09/05 18:00:17;;;;;;;7.80;6.43;;;;;;;24.64;75.85;96707.69;5120123;27;20080;-56
2021/09/05 18:02:46;;;;;;;10.10;6.90;;;;;;;24.59;76.56;96710.22;5101507;27;20059;-54
2021/09/05 18:05:15;;;;;;;7.90;6.65;;;;;;;24.35;79.55;96712.75;5102879;27;20103;-57
2021/09/05 18:07:44;;;;;;;10.85;7.10;;;;;;;23.88;82.71;96712.47;5096097;28;20068;-55
2021/09/05 18:10:12;;;;;;;8.70;6.28;;;;;;;24.07;84.18;96713.28;5097891;27;20119;-57
2021/09/05 18:12:40;;;;;;;12.57;7.05;;;;;;;23.97;74.26;96723.75;5098376;27;20059;-54
2021/09/05 18:15:09;;;;;;;7.93;6.55;;;;;;;23.89;88.16;96719.50;5099928;27;20068;-58
2021/09/05 18:17:39;;;;;;;10.65;6.68;;;;;;;23.83;86.21;96719.56;5096460;28;20080;-57
2021/09/05 18:20:09;;;;;;;8.65;6.30;;;;;;;23.71;95.75;96721.31;5105967;27;20075;-57
2021/09/05 18:22:38;;;;;;;10.45;6.60;;;;;;;23.61;99.18;96727.19;5094906;27;20070;-55
2021/09/05 18:25:07;;;;;;;8.38;6.80;;;;;;;23.48;100.00;96720.03;5107564;27;20086;-56
2021/09/05 18:27:35;;;;;;;9.48;7.30;;;;;;;23.41;100.00;96730.03;5111010;27;20073;-57
2021/09/05 18:30:05;;;;;;;11.32;7.32;;;;;;;23.29;96.40;96734.47;5101953;27;20074;-56
2021/09/05 18:32:34;;;;;;;8.93;7.20;;;;;;;23.13;96.31;96736.66;5109046;27;20091;-53
2021/09/05 18:35:04;;;;;;;9.98;7.07;;;;;;;22.83;100.00;96744.44;5100265;27;20079;-55
2021/09/05 18:37:32;;;;;;;11.10;7.20;;;;;;;22.65;100.00;96738.97;5101014;27;20433;-56
2021/09/05 18:40:01;;;;;;;9.45;7.43;;;;;;;22.59;100.00;96746.00;5109703;27;20067;-57
2021/09/05 18:42:30;;;;;;;9.98;7.50;;;;;;;22.44;100.00;96751.66;5083598;28;20075;-57
2021/09/05 18:44:58;;;;;;;8.90;7.00;;;;;;;22.51;100.00;96751.66;5098528;27;20063;-57
2021/09/05 18:47:27;;;;;;;10.98;7.50;;;;;;;22.48;100.00;96754.75;5103128;27;20095;-55
2021/09/05 18:49:56;;;;;;;8.40;7.03;;;;;;;22.34;100.00;96750.47;5105206;27;20121;-52
2021/09/05 18:52:26;;;;;;;10.07;7.63;;;;;;;22.33;100.00;96752.31;5097976;27;20078;-55
2021/09/05 18:54:54;;;;;;;11.75;7.50;;;;;;;22.24;100.00;96756.28;5098991;27;20105;-53
2021/09/05 18:57:22;;;;;;;11.27;7.80;;;;;;;22.11;100.00;96762.47;5112900;27;20097;-56
2021/09/05 18:59:51;;;;;;;9.40;7.40;;;;;;;22.14;100.00;96758.53;5096802;27;20060;-57
2021/09/05 19:02:19;;;;;;;8.25;6.97;;;;;;;22.01;100.00;96759.38;5097173;28;20075;-57
2021/09/05 19:04:52;;;;;;;9.75;7.70;;;;;;;21.91;100.00;96764.34;5099113;27;20368;-56
2021/09/05 19:07:20;;;;;;;10.10;8.23;;;;;;;21.84;100.00;96767.03;5098401;27;20079;-57
2021/09/05 19:09:50;;;;;;;9.70;7.30;;;;;;;21.77;100.00;96771.59;5095196;27;20055;-57
2021/09/05 19:12:19;;;;;;;10.30;7.63;;;;;;;21.75;100.00;96769.13;5097959;27;20074;-57
2021/09/05 19:14:47;;;;;;;13.13;8.60;;;;;;;21.76;100.00;96768.09;5098061;27;20059;-57
2021/09/05 19:17:15;;;;;;;10.02;8.02;;;;;;;21.75;100.00;96766.44;5096016;27;20119;-58
2021/09/05 19:19:43;;;;;;;9.70;7.82;;;;;;;21.67;100.00;96765.81;5094105;27;20055;-55
2021/09/05 19:22:12;;;;;;;10.63;7.68;;;;;;;21.51;100.00;96765.22;5090516;28;20083;-58
2021/09/05 19:24:40;;;;;;;12.68;8.10;;;;;;;21.48;100.00;96762.13;5103360;27;20587;-58
2021/09/05 19:27:10;;;;;;;9.18;8.13;;;;;;;21.45;100.00;96767.91;5095576;27;20059;-56
2021/09/05 19:29:38;;;;;;;10.20;7.87;;;;;;;21.36;100.00;96767.25;5097526;27;20076;-57
2021/09/05 19:32:07;;;;;;;10.65;7.70;;;;;;;21.29;100.00;96767.22;5104149;27;21060;-57
2021/09/05 19:34:36;;;;;;;9.75;7.97;;;;;;;21.25;100.00;96770.53;5092463;28;20060;-56
2021/09/05 19:37:05;;;;;;;11.57;8.35;;;;;;;21.13;100.00;96772.97;5081823;27;20060;-57
2021/09/05 19:39:33;;;;;;;11.77;8.38;;;;;;;21.15;100.00;96775.44;5102154;27;20075;-53
2021/09/05 19:42:02;;;;;;;10.32;8.25;;;;;;;21.15;100.00;96772.78;5086023;28;20083;-55
2021/09/05 19:44:32;;;;;;;9.98;8.20;;;;;;;21.14;100.00;96773.81;5099034;27;20556;-57
2021/09/05 19:47:00;;;;;;;10.52;8.07;;;;;;;21.07;100.00;96776.47;5098895;27;20076;-57
2021/09/05 19:49:28;;;;;;;12.13;8.20;;;;;;;21.11;100.00;96775.03;5100175;27;20086;-57
2021/09/05 19:51:57;;;;;;;12.88;8.75;;;;;;;21.07;100.00;96774.63;5099402;27;20529;-57
2021/09/05 19:54:25;;;;;;;10.75;8.18;;;;;;;21.01;100.00;96774.59;5092843;28;20094;-57
2021/09/05 19:56:53;;;;;;;12.07;8.70;;;;;;;20.94;100.00;96771.06;5100459;28;20074;-57
2021/09/05 19:59:22;;;;;;;11.38;8.10;;;;;;;20.92;100.00;96773.13;5108439;27;20082;-57
2021/09/05 20:01:51;;;;;;;11.95;8.43;;;;;;;20.85;100.00;96770.41;5095000;28;20302;-56
2021/09/05 20:04:20;;;;;;;10.55;8.10;;;;;;;20.78;100.00;96781.13;5101496;27;20062;-57
2021/09/05 20:06:49;;;;;;;9.60;8.10;;;;;;;20.61;100.00;96777.13;5109866;27;20067;-57
2021/09/05 20:09:17;;;;;;;11.02;8.52;;;;;;;20.69;100.00;96776.97;5104008;27;20074;-55
2021/09/05 20:11:46;;;;;;;11.02;8.38;;;;;;;20.55;100.00;96784.13;5103199;27;20059;-55
2021/09/05 20:14:15;;;;;;;10.77;8.32;;;;;;;20.19;100.00;96784.31;5103503;28;20086;-58
2021/09/05 20:16:43;;;;;;;10.52;7.90;;;;;;;20.17;100.00;96780.22;5098490;27;20079;-58
2021/09/05 20:19:13;;;;;;;11.27;7.78;;;;;;;20.43;100.00;96777.66;5108107;27;20069;-56
2021/09/05 20:21:41;;;;;;;9.45;8.10;;;;;;;20.43;100.00;96787.53;5108677;28;20070;-52
2021/09/05 20:24:10;;;;;;;10.43;8.13;;;;;;;20.48;100.00;96788.59;5104274;28;20524;-58
2021/09/05 20:26:38;;;;;;;10.88;8.57;;;;;;;20.46;100.00;96787.97;5099319;28;20076;-57
2021/09/05 20:29:07;;;;;;;10.13;8.30;;;;;;;20.46;100.00;96790.66;5105769;28;20083;-57
2021/09/05 20:31:36;;;;;;;10.35;8.38;;;;;;;20.48;100.00;96793.97;5094493;28;20074;-56
2021/09/05 20:34:05;;;;;;;11.23;8.55;;;;;;;20.29;100.00;96797.34;5100901;28;20112;-56
2021/09/05 20:36:47;;;;;;;10.90;8.15;;;;;;;20.31;100.00;96787.28;5111455;28;20066;-59
2021/09/05 20:39:15;;;;;;;10.80;8.80;;;;;;;20.22;100.00;96797.31;5097787;28;20074;-51
2021/09/05 20:41:44;;;;;;;13.80;9.65;;;;;;;20.08;100.00;96793.72;5102455;28;20079;-56
2021/09/05 20:44:12;;;;;;;12.98;9.02;;;;;;;20.03;100.00;96787.31;5108240;28;20066;-54
2021/09/05 20:46:41;;;;;;;11.95;8.90;;;;;;;19.95;100.00;96790.13;5102993;28;20477;-57
2021/09/05 20:49:11;;;;;;;11.68;9.05;;;;;;;20.04;100.00;96794.31;5103577;28;20055;-56
2021/09/05 20:51:41;;;;;;;14.32;9.43;;;;;;;20.07;100.00;96800.13;5098467;28;20116;-56
2021/09/05 20:54:11;;;;;;;12.85;9.55;;;;;;;19.98;100.00;96800.47;5098624;28;20071;-57
2021/09/05 20:56:39;;;;;;;13.27;9.67;;;;;;;19.76;100.00;96794.34;5093979;28;20076;-52
2021/09/05 20:59:08;;;;;;;12.63;9.30;;;;;;;19.94;100.00;96793.84;5104312;28;20524;-56
2021/09/05 21:01:36;;;;;;;10.15;8.45;;;;;;;19.92;100.00;96802.06;5098366;28;20078;-56
2021/09/05 21:04:05;;;;;;;9.85;8.18;;;;;;;19.82;100.00;96801.56;5096338;28;20062;-54
2021/09/05 21:06:33;;;;;;;13.98;9.68;;;;;;;19.69;100.00;96802.31;5098357;28;20534;-57
2021/09/05 21:09:02;;;;;;;12.30;8.35;;;;;;;19.39;100.00;96806.94;5097610;28;20079;-56
2021/09/05 21:11:31;;;;;;;11.70;8.93;;;;;;;19.10;100.00;96813.25;5098464;28;20146;-56
2021/09/05 21:14:00;;;;;;;11.63;8.93;;;;;;;19.43;100.00;96809.03;5097550;28;20080;-55
2021/09/05 21:16:29;;;;;;;11.43;8.98;;;;;;;19.24;100.00;96815.03;5099478;28;20098;-56
2021/09/05 21:18:57;;;;;;;12.50;8.93;;;;;;;19.51;100.00;96802.75;5099059;28;20078;-57
2021/09/05 21:21:26;;;;;;;10.68;9.07;;;;;;;19.52;100.00;96815.09;5098764;28;20063;-58
2021/09/05 21:23:55;;;;;;;11.85;9.43;;;;;;;19.52;100.00;96812.41;5100422;28;20063;-57
2021/09/05 21:26:23;;;;;;;16.13;9.00;;;;;;;19.30;100.00;96800.06;5104793;27;20068;-54
2021/09/05 21:28:53;;;;;;;10.90;8.85;;;;;;;19.14;100.00;96811.84;5110975;27;20070;-56
2021/09/05 21:31:21;;;;;;;10.87;8.80;;;;;;;19.34;100.00;96812.88;5096745;28;20086;-55
2021/09/05 21:33:50;;;;;;;12.27;8.70;;;;;;;19.41;100.00;96804.91;5099992;27;20512;-57
2021/09/05 21:36:18;;;;;;;12.68;8.98;;;;;;;19.43;100.00;96810.88;5100441;27;20098;-58
2021/09/05 21:38:47;;;;;;;11.05;8.75;;;;;;;19.37;100.00;96809.81;5107506;27;20070;-57
2021/09/05 21:41:15;;;;;;;13.25;8.88;;;;;;;19.30;100.00;96816.09;5102700;28;20090;-58
2021/09/05 21:43:43;;;;;;;17.33;9.50;;;;;;;19.14;100.00;96822.53;5102659;27;20071;-54
2021/09/05 21:46:14;;;;;;;12.25;10.23;;;;;;;19.11;100.00;96820.25;5098638;27;20063;-56
2021/09/05 21:48:42;;;;;;;12.57;9.52;;;;;;;18.81;100.00;96827.50;5101807;27;20105;-55
2021/09/05 21:51:10;;;;;;;11.40;9.35;;;;;;;19.14;100.00;96826.03;5103781;27;20063;-54
2021/09/05 21:53:39;;;;;;;12.40;8.90;;;;;;;19.14;100.00;96814.53;5098893;27;20076;-56
2021/09/05 21:56:07;;;;;;;11.20;8.60;;;;;;;19.21;100.00;96820.75;5108509;27;20082;-54
2021/09/05 21:58:35;;;;;;;11.07;8.25;;;;;;;19.23;100.00;96817.88;5099991;27;20071;-55
2021/09/05 22:01:04;;;;;;;11.50;8.70;;;;;;;19.17;100.00;96817.66;5103114;27;20067;-58
2021/09/05 22:03:34;;;;;;;10.45;8.52;;;;;;;19.10;100.00;96815.94;5100710;27;20448;-54
2021/09/05 22:06:02;;;;;;;11.77;8.48;;;;;;;18.98;100.00;96816.41;5102944;28;20068;-54
2021/09/05 22:08:31;;;;;;;10.15;8.30;;;;;;;18.89;100.00;96816.69;5098242;27;20082;-54
2021/09/05 22:10:59;;;;;;;9.68;7.97;;;;;;;19.09;100.00;96817.75;5101108;27;20095;-57
2021/09/05 22:13:27;;;;;;;8.63;7.15;;;;;;;19.03;100.00;96823.88;5097252;28;20078;-50
2021/09/05 22:15:56;;;;;;;9.85;8.10;;;;;;;18.88;100.00;96826.56;5099719;27;20075;-55
2021/09/05 22:18:24;;;;;;;9.65;7.53;;;;;;;18.90;100.00;96821.88;5099374;27;20078;-53
2021/09/05 22:20:54;;;;;;;14.70;7.72;;;;;;;18.53;100.00;96825.47;5111771;27;20081;-57
2021/09/05 22:23:22;;;;;;;10.38;8.20;;;;;;;18.22;100.00;96831.84;5103354;27;20106;-54
2021/09/05 22:25:51;;;;;;;9.40;7.85;;;;;;;18.52;100.00;96831.03;5102833;27;20308;-55
2021/09/05 22:28:19;;;;;;;10.20;8.05;;;;;;;18.34;100.00;96826.88;5096103;27;20075;-56
2021/09/05 22:30:47;;;;;;;11.10;8.55;;;;;;;18.41;100.00;96829.63;5103937;27;20066;-54
2021/09/05 22:33:16;;;;;;;10.48;7.97;;;;;;;18.08;100.00;96837.16;5101967;27;20172;-57
2021/09/05 22:35:44;;;;;;;10.77;8.57;;;;;;;17.41;100.00;96825.41;5094142;28;20067;-56
2021/09/05 22:38:14;;;;;;;11.02;8.23;;;;;;;17.99;100.00;96831.91;5109627;27;20089;-56
2021/09/05 22:40:42;;;;;;;10.95;8.13;;;;;;;18.33;100.00;96829.72;5099868;27;20524;-57
2021/09/05 22:43:11;;;;;;;10.77;8.45;;;;;;;18.26;100.00;96834.97;5100687;27;20082;-57
2021/09/05 22:45:39;;;;;;;10.30;8.13;;;;;;;18.38;100.00;96835.34;5096899;28;20071;-53
2021/09/05 22:48:08;;;;;;;9.45;7.68;;;;;;;18.30;100.00;96838.09;5103696;27;20071;-54
2021/09/05 22:50:36;;;;;;;10.88;7.93;;;;;;;18.24;100.00;96837.84;5098095;27;20154;-54
2021/09/05 22:53:05;;;;;;;9.65;8.10;;;;;;;18.36;100.00;96838.19;5108161;27;20082;-57
2021/09/05 22:55:34;;;;;;;11.73;7.68;;;;;;;18.26;100.00;96837.63;5104062;27;20105;-54
2021/09/05 22:58:03;;;;;;;11.33;8.20;;;;;;;18.33;100.00;96829.72;5099019;27;20063;-53
2021/09/05 23:00:32;;;;;;;10.52;8.20;;;;;;;18.20;100.00;96839.22;5092265;28;20505;-54
2021/09/05 23:03:01;;;;;;;10.30;7.65;;;;;;;18.23;100.00;96840.66;5096429;28;20067;-49
2021/09/05 23:05:30;;;;;;;8.73;7.53;;;;;;;18.31;100.00;96845.13;5097597;27;20087;-54
2021/09/05 23:07:58;;;;;;;9.77;7.90;;;;;;;18.15;100.00;96840.75;5101255;27;20082;-56
2021/09/05 23:10:27;;;;;;;12.50;8.10;;;;;;;17.94;100.00;96836.97;5099783;27;20150;-54
2021/09/05 23:12:57;;;;;;;11.23;8.25;;;;;;;17.83;100.00;96837.41;5095815;27;20462;-50
2021/09/05 23:15:25;;;;;;;11.27;8.63;;;;;;;17.21;100.00;96838.38;5105187;27;20067;-54
2021/09/05 23:17:54;;;;;;;11.13;8.75;;;;;;;17.53;100.00;96836.47;5094917;27;20478;-57
2021/09/05 23:20:23;;;;;;;10.93;9.05;;;;;;;17.88;100.00;96836.84;5097688;27;20098;-57
2021/09/05 23:22:51;;;;;;;13.05;10.02;;;;;;;17.71;100.00;96838.81;5103338;27;20496;-55
2021/09/05 23:25:20;;;;;;;12.02;9.27;;;;;;;17.79;100.00;96844.13;5092114;27;20064;-55
2021/09/05 23:27:48;;;;;;;12.10;9.20;;;;;;;17.55;100.00;96837.13;5095423;27;20682;-51
2021/09/05 23:30:18;;;;;;;12.27;9.55;;;;;;;17.44;100.00;96837.53;5090011;28;20460;-55
2021/09/05 23:32:46;;;;;;;12.48;9.35;;;;;;;17.54;100.00;96832.78;5104201;27;20082;-56
2021/09/05 23:35:15;;;;;;;11.95;9.40;;;;;;;17.71;100.00;96833.47;5098988;27;20086;-56
2021/09/05 23:37:43;;;;;;;10.82;9.30;;;;;;;17.53;100.00;96841.78;5099288;27;20071;-57
2021/09/05 23:40:13;;;;;;;11.43;9.40;;;;;;;17.41;100.00;96838.72;5093119;28;20553;-53
2021/09/05 23:42:42;;;;;;;10.63;9.10;;;;;;;17.29;100.00;96838.28;5097373;27;20508;-53
2021/09/05 23:45:12;;;;;;;10.55;8.65;;;;;;;17.67;100.00;96838.34;5098114;27;20063;-55
2021/09/05 23:47:41;;;;;;;10.18;8.45;;;;;;;17.74;100.00;96839.28;5097723;28;20490;-53